Time;durP1;ratioP1;P1;durP2;ratioP2;P2;SDS_P1;SDS_P2;PMS_P1;PMS_P2;Temp;Humidity;BMP_temperature;BMP_pressure;BME280_temperature;BME280_humidity;BME280_pressure;Samples;Min_cycle;Max_cycle;Signal;HPM_P1;HPM_P2
2022/10/21 00:00:49;;;;;;;0.90;0.90;;;;;;;0.97;75.35;99593.34;5093984;28;20108;-82
2022/10/21 00:03:17;;;;;;;0.80;0.80;;;;;;;0.90;75.71;99587.03;5093443;28;20054;-82
2022/10/21 00:05:44;;;;;;;0.60;0.60;;;;;;;0.81;75.81;99588.88;5093583;28;20040;-82
2022/10/21 00:08:11;;;;;;;0.90;0.90;;;;;;;0.83;76.26;99595.66;5092103;28;20051;-83
2022/10/21 00:10:41;;;;;;;0.85;0.85;;;;;;;0.84;76.39;99597.34;5093895;28;20054;-82
2022/10/21 00:13:08;;;;;;;0.88;0.88;;;;;;;0.88;76.38;99594.34;5093666;28;20043;-83
2022/10/21 00:15:37;;;;;;;0.90;0.90;;;;;;;0.94;76.34;99589.22;5092462;28;20048;-82
2022/10/21 00:18:04;;;;;;;0.80;0.80;;;;;;;0.93;76.13;99592.84;5093174;28;20052;-82
2022/10/21 00:20:31;;;;;;;0.80;0.80;;;;;;;0.91;76.25;99588.69;5093669;28;20040;-82
2022/10/21 00:23:04;;;;;;;0.80;0.80;;;;;;;0.88;76.36;99583.72;5093362;28;20051;-82
2022/10/21 00:25:32;;;;;;;0.90;0.90;;;;;;;0.88;76.46;99570.44;5092930;28;20052;-82
2022/10/21 00:27:59;;;;;;;0.90;0.90;;;;;;;0.90;76.53;99571.09;5093394;28;20052;-82
2022/10/21 00:30:26;;;;;;;0.75;0.75;;;;;;;0.89;76.46;99566.75;5092956;28;20093;-81
2022/10/21 00:32:53;;;;;;;0.80;0.80;;;;;;;0.88;76.48;99568.59;5091517;28;20056;-82
2022/10/21 00:35:24;;;;;;;0.80;0.80;;;;;;;0.90;76.21;99565.78;5093135;28;20414;-83
2022/10/21 00:37:53;;;;;;;0.90;0.90;;;;;;;0.89;76.22;99570.28;5092921;28;20471;-81
2022/10/21 00:40:20;;;;;;;0.90;0.90;;;;;;;0.91;76.36;99562.13;5092525;28;20048;-82
2022/10/21 00:42:49;;;;;;;0.70;0.70;;;;;;;0.91;76.49;99554.16;5091615;28;20157;-82
2022/10/21 00:45:30;;;;;;;0.80;0.80;;;;;;;0.94;76.50;99548.47;5092852;28;20044;-82
2022/10/21 00:48:05;;;;;;;0.80;0.80;;;;;;;0.95;76.44;99539.53;5096416;28;20103;-82
2022/10/21 00:50:42;;;;;;;0.88;0.88;;;;;;;0.89;76.28;99532.22;5093611;28;20550;-82
2022/10/21 00:53:13;;;;;;;0.80;0.80;;;;;;;0.85;76.42;99534.41;5091671;28;20047;-82
2022/10/21 00:55:46;;;;;;;0.90;0.90;;;;;;;0.87;76.64;99540.38;5092790;28;20160;-82
2022/10/21 00:58:14;;;;;;;0.90;0.90;;;;;;;0.88;77.24;99535.88;5090870;28;20055;-82
2022/10/21 01:00:44;;;;;;;0.90;0.90;;;;;;;0.86;77.25;99541.34;5092250;28;20044;-82
2022/10/21 01:03:11;;;;;;;0.90;0.90;;;;;;;0.83;77.67;99542.53;5092211;28;20052;-82
2022/10/21 01:05:39;;;;;;;0.90;0.90;;;;;;;0.80;77.96;99545.53;5092517;28;20063;-82
2022/10/21 01:08:06;;;;;;;0.95;0.95;;;;;;;0.75;78.16;99547.03;5092619;28;20062;-81
2022/10/21 01:10:33;;;;;;;0.90;0.90;;;;;;;0.75;78.34;99563.81;5092702;28;20048;-82
2022/10/21 01:13:17;;;;;;;0.90;0.90;;;;;;;0.70;78.32;99566.13;5092360;28;20048;-81
2022/10/21 01:16:02;;;;;;;0.90;0.90;;;;;;;0.71;78.66;99570.47;5091213;28;20055;-82
2022/10/21 01:18:53;;;;;;;0.90;0.90;;;;;;;0.65;78.96;99563.97;5092279;28;20048;-83
2022/10/21 01:21:45;;;;;;;0.90;0.90;;;;;;;0.63;79.19;99559.81;5092063;28;20043;-82
2022/10/21 01:24:34;;;;;;;0.90;0.90;;;;;;;0.63;79.25;99558.00;5092010;28;20111;-82
2022/10/21 01:27:23;;;;;;;0.90;0.90;;;;;;;0.61;79.56;99564.50;5091958;28;20142;-82
2022/10/21 01:30:09;;;;;;;0.80;0.80;;;;;;;0.70;79.71;99560.81;5092017;28;20048;-81
2022/10/21 01:32:54;;;;;;;0.80;0.80;;;;;;;0.70;79.44;99563.47;5092097;28;20052;-82
2022/10/21 01:35:22;;;;;;;0.90;0.90;;;;;;;0.65;79.71;99563.16;5091730;28;20503;-83
2022/10/21 01:38:09;;;;;;;0.90;0.90;;;;;;;0.68;79.99;99565.47;5091868;28;20048;-82
2022/10/21 01:40:58;;;;;;;0.85;0.85;;;;;;;0.70;80.03;99560.00;5090655;28;20047;-81
2022/10/21 01:43:43;;;;;;;0.90;0.90;;;;;;;0.71;79.91;99557.19;5073450;28;20048;-82
2022/10/21 01:46:15;;;;;;;0.90;0.90;;;;;;;0.72;80.12;99563.31;5091643;28;20479;-82
2022/10/21 01:48:50;;;;;;;0.80;0.80;;;;;;;0.74;80.14;99559.50;5090023;28;20456;-82
2022/10/21 01:51:18;;;;;;;0.80;0.80;;;;;;;0.66;80.11;99554.19;5090379;28;20073;-81
2022/10/21 01:53:51;;;;;;;0.90;0.90;;;;;;;0.63;80.12;99550.03;5073848;28;20044;-82
2022/10/21 01:56:19;;;;;;;1.00;1.00;;;;;;;0.64;80.20;99556.19;5089723;28;20453;-82
2022/10/21 01:58:48;;;;;;;0.90;0.90;;;;;;;0.62;80.20;99558.16;5090385;28;20513;-82
2022/10/21 02:01:18;;;;;;;0.95;0.95;;;;;;;0.60;80.38;99552.19;5089878;28;20055;-82
2022/10/21 02:03:48;;;;;;;0.90;0.90;;;;;;;0.60;80.68;99554.84;5090537;28;20085;-83
2022/10/21 02:06:18;;;;;;;0.80;0.80;;;;;;;0.60;80.85;99555.66;5090647;28;20047;-82
2022/10/21 02:08:45;;;;;;;0.90;0.90;;;;;;;0.63;80.62;99554.50;5090476;28;20060;-83
2022/10/21 02:11:17;;;;;;;0.80;0.80;;;;;;;0.64;80.71;99551.69;5072998;28;20044;-82
2022/10/21 02:13:52;;;;;;;0.90;0.90;;;;;;;0.62;80.76;99561.66;5090523;28;20048;-81
2022/10/21 02:16:23;;;;;;;0.80;0.80;;;;;;;0.63;80.75;99559.81;5091169;28;20058;-83
2022/10/21 02:19:13;;;;;;;0.90;0.90;;;;;;;0.66;81.13;99567.47;5073158;28;20200;-82
2022/10/21 02:21:43;;;;;;;1.00;1.00;;;;;;;0.67;81.08;99563.00;5080944;28;20054;-81
2022/10/21 02:24:21;;;;;;;0.90;0.90;;;;;;;0.64;81.18;99572.94;5089884;28;20068;-82
2022/10/21 02:26:48;;;;;;;0.90;0.90;;;;;;;0.61;81.28;99572.47;5090470;28;20056;-81
2022/10/21 02:29:20;;;;;;;0.90;0.90;;;;;;;0.62;81.16;99574.09;5090970;28;20044;-82
2022/10/21 02:32:25;;;;;;;0.90;0.90;;;;;;;0.61;81.38;99583.09;5093738;28;20052;-81
2022/10/21 02:35:08;;;;;;;0.90;0.90;;;;;;;0.60;81.62;99576.09;5016403;28;20498;-81
2022/10/21 02:37:47;;;;;;;0.88;0.88;;;;;;;0.55;81.58;99581.06;5016327;28;20092;-82
2022/10/21 02:40:30;;;;;;;1.00;1.00;;;;;;;0.55;81.68;99576.59;5015831;28;20050;-82
2022/10/21 02:43:02;;;;;;;0.90;0.90;;;;;;;0.55;81.97;99586.38;5032562;28;20061;-83
2022/10/21 02:45:29;;;;;;;0.90;0.90;;;;;;;0.53;81.76;99593.69;4999569;28;20053;-82
2022/10/21 02:47:56;;;;;;;0.85;0.85;;;;;;;0.51;82.37;99596.53;5016765;28;20060;-81
2022/10/21 02:50:23;;;;;;;0.85;0.85;;;;;;;0.53;82.40;99588.38;5032111;28;20089;-81
2022/10/21 02:52:50;;;;;;;0.80;0.80;;;;;;;0.55;82.35;99586.38;5032568;28;20053;-82
2022/10/21 02:55:17;;;;;;;0.88;0.88;;;;;;;0.57;82.65;99587.06;5015877;28;20576;-82
2022/10/21 02:57:46;;;;;;;0.80;0.80;;;;;;;0.56;82.71;99585.41;5033530;28;20049;-81
2022/10/21 03:00:13;;;;;;;0.80;0.80;;;;;;;0.57;82.78;99577.25;5034412;28;20051;-81
2022/10/21 03:02:41;;;;;;;0.88;0.88;;;;;;;0.55;82.96;99573.09;5016065;28;20054;-82
2022/10/21 03:05:27;;;;;;;0.80;0.80;;;;;;;0.55;83.29;99581.91;5017319;28;20056;-83
2022/10/21 03:07:54;;;;;;;0.85;0.85;;;;;;;0.61;83.46;99570.63;5032531;28;20045;-81
2022/10/21 03:10:21;;;;;;;0.82;0.82;;;;;;;0.62;83.59;99569.63;5038131;28;20410;-82
2022/10/21 03:12:48;;;;;;;0.73;0.73;;;;;;;0.62;83.65;99574.09;5072970;28;20390;-81
2022/10/21 03:15:16;;;;;;;0.80;0.80;;;;;;;0.63;83.78;99565.13;5074074;28;20040;-82
2022/10/21 03:17:43;;;;;;;0.90;0.90;;;;;;;0.60;83.99;99565.47;5073941;28;20049;-83
2022/10/21 03:20:10;;;;;;;0.82;0.82;;;;;;;0.59;84.34;99563.81;5039091;28;20102;-82
2022/10/21 03:22:37;;;;;;;0.80;0.80;;;;;;;0.58;84.34;99565.66;5073619;28;20076;-81
2022/10/21 03:25:05;;;;;;;0.80;0.80;;;;;;;0.58;84.46;99564.81;5074327;28;20102;-85
2022/10/21 03:27:32;;;;;;;0.90;0.90;;;;;;;0.58;84.69;99563.00;5073689;28;20103;-84
2022/10/21 03:30:05;;;;;;;0.90;0.90;;;;;;;0.61;84.93;99567.16;5073009;28;20064;-85
2022/10/21 03:32:32;;;;;;;0.80;0.80;;;;;;;0.58;85.01;99563.00;5073862;28;20073;-85
2022/10/21 03:34:59;;;;;;;0.90;0.90;;;;;;;0.58;85.33;99556.84;5074146;28;20423;-85
2022/10/21 03:37:26;;;;;;;0.90;0.90;;;;;;;0.62;85.26;99561.66;5073123;28;20056;-84
2022/10/21 03:39:53;;;;;;;0.80;0.80;;;;;;;0.64;85.53;99564.16;5073214;28;20048;-83
2022/10/21 03:42:20;;;;;;;0.80;0.80;;;;;;;0.67;85.68;99565.66;5074155;28;20051;-83
2022/10/21 03:44:47;;;;;;;0.80;0.80;;;;;;;0.68;85.74;99567.28;5074086;28;20050;-82
2022/10/21 03:47:15;;;;;;;0.90;0.90;;;;;;;0.66;85.75;99570.13;5073368;28;20048;-83
2022/10/21 03:49:43;;;;;;;0.90;0.90;;;;;;;0.63;85.90;99567.78;5079343;28;20068;-84
2022/10/21 03:52:10;;;;;;;0.80;0.80;;;;;;;0.59;85.98;99569.97;5085069;28;20047;-87
2022/10/21 03:54:40;;;;;;;0.90;0.90;;;;;;;0.60;86.04;99576.91;5092548;28;20123;-86
2022/10/21 03:57:08;;;;;;;0.88;0.88;;;;;;;0.61;86.31;99570.63;5093289;28;20139;-83
2022/10/21 03:59:37;;;;;;;0.90;0.90;;;;;;;0.67;86.51;99577.09;5093452;28;20577;-83
2022/10/21 04:02:04;;;;;;;0.80;0.80;;;;;;;0.70;86.40;99576.75;5092433;28;20048;-84
2022/10/21 04:04:31;;;;;;;0.75;0.75;;;;;;;0.72;86.37;99576.59;5093010;28;20052;-84
2022/10/21 04:06:58;;;;;;;0.85;0.85;;;;;;;0.77;86.26;99582.25;5093626;28;20052;-83
2022/10/21 04:09:31;;;;;;;0.77;0.77;;;;;;;0.69;86.37;99579.59;5093497;28;20087;-86
2022/10/21 04:11:58;;;;;;;0.80;0.80;;;;;;;0.76;86.63;99581.41;5091632;28;20158;-83
2022/10/21 04:14:30;;;;;;;0.88;0.88;;;;;;;0.80;86.60;99577.41;5090435;28;20047;-84
2022/10/21 04:16:57;;;;;;;0.80;0.80;;;;;;;0.76;86.55;99588.53;5092570;28;20071;-85
2022/10/21 04:19:33;;;;;;;0.75;0.75;;;;;;;0.74;86.61;99587.91;5093159;28;20058;-84
2022/10/21 04:22:00;;;;;;;0.80;0.80;;;;;;;0.72;86.75;99584.56;5091384;28;20044;-83
2022/10/21 04:24:26;;;;;;;0.90;0.90;;;;;;;0.76;86.82;99592.03;5079625;28;20135;-82
2022/10/21 04:26:53;;;;;;;0.90;0.90;;;;;;;0.77;86.73;99580.41;5070800;28;20575;-83
2022/10/21 04:29:21;;;;;;;0.90;0.90;;;;;;;0.75;87.07;99593.03;5086033;28;20056;-85
2022/10/21 04:31:47;;;;;;;0.80;0.80;;;;;;;0.78;87.02;99584.72;5082157;28;20617;-84
2022/10/21 04:34:15;;;;;;;0.80;0.80;;;;;;;0.80;87.15;99590.69;4689975;28;10000428;-84
2022/10/21 04:36:42;;;;;;;0.80;0.80;;;;;;;0.82;87.07;99585.22;5087024;28;20190;-86
2022/10/21 04:39:09;;;;;;;0.77;0.77;;;;;;;0.83;87.14;99589.53;5082463;28;20105;-84
2022/10/21 04:41:37;;;;;;;0.80;0.80;;;;;;;0.83;86.93;99584.22;5088475;28;20071;-82
2022/10/21 04:44:05;;;;;;;0.90;0.90;;;;;;;0.81;87.09;99595.03;5088206;28;20048;-82
2022/10/21 04:46:32;;;;;;;0.80;0.80;;;;;;;0.81;86.94;99602.16;5070194;28;20052;-81
2022/10/21 04:48:59;;;;;;;0.88;0.88;;;;;;;0.82;87.18;99599.34;5088409;28;20062;-84
2022/10/21 04:51:27;;;;;;;0.90;0.90;;;;;;;0.89;87.11;99606.63;5088237;28;20125;-83
2022/10/21 04:53:54;;;;;;;0.80;0.80;;;;;;;0.92;86.85;99608.97;5088123;28;20585;-83
2022/10/21 04:56:21;;;;;;;0.80;0.80;;;;;;;0.95;86.88;99600.66;5087005;28;20043;-84
2022/10/21 04:58:51;;;;;;;0.90;0.90;;;;;;;0.96;86.78;99597.00;5086690;28;20051;-81
2022/10/21 05:01:24;;;;;;;0.88;0.88;;;;;;;1.04;86.71;99594.34;5087733;28;20047;-85
2022/10/21 05:03:51;;;;;;;0.70;0.70;;;;;;;1.08;86.72;99599.13;5091000;28;20083;-83
2022/10/21 05:06:20;;;;;;;0.80;0.80;;;;;;;1.12;86.57;99598.81;5081969;28;20150;-81
2022/10/21 05:08:47;;;;;;;0.80;0.80;;;;;;;1.16;86.38;99600.13;5073456;28;20049;-83
2022/10/21 05:11:14;;;;;;;0.73;0.73;;;;;;;1.19;86.44;99602.44;5073140;28;20067;-84
2022/10/21 05:13:41;;;;;;;0.80;0.80;;;;;;;1.17;86.45;99599.13;5076132;28;20214;-85
2022/10/21 05:16:08;;;;;;;0.90;0.90;;;;;;;1.19;86.47;99591.81;5072127;28;20506;-84
2022/10/21 05:18:35;;;;;;;0.90;0.90;;;;;;;1.21;86.82;99589.81;5071269;28;20084;-83
2022/10/21 05:21:04;;;;;;;0.90;0.90;;;;;;;1.20;86.63;99596.97;5071609;28;20546;-86
2022/10/21 05:23:31;;;;;;;0.80;0.80;;;;;;;1.23;86.80;99607.25;5070656;28;20044;-84
2022/10/21 05:25:58;;;;;;;0.80;0.80;;;;;;;1.24;86.63;99610.72;5070071;28;20055;-84
2022/10/21 05:28:25;;;;;;;0.80;0.80;;;;;;;1.29;86.55;99603.06;5070794;28;20040;-84
2022/10/21 05:30:52;;;;;;;0.82;0.82;;;;;;;1.32;86.67;99602.75;5071211;28;20048;-84
2022/10/21 05:33:19;;;;;;;0.90;0.90;;;;;;;1.33;86.56;99598.25;5071611;28;20530;-84
2022/10/21 05:35:59;;;;;;;1.00;1.00;;;;;;;1.38;86.58;99606.56;5072002;28;20059;-84
2022/10/21 05:38:30;;;;;;;0.90;0.90;;;;;;;1.32;86.29;99608.09;5071572;28;20045;-84
2022/10/21 05:40:57;;;;;;;0.80;0.80;;;;;;;1.34;86.41;99614.03;5073426;28;20104;-84
2022/10/21 05:43:24;;;;;;;0.75;0.75;;;;;;;1.35;86.57;99621.03;5071164;28;20044;-83
2022/10/21 05:45:54;;;;;;;0.90;0.90;;;;;;;1.32;86.29;99618.72;5072301;28;20052;-83
2022/10/21 05:48:24;;;;;;;0.80;0.80;;;;;;;1.39;86.58;99618.84;5072115;28;20193;-84
2022/10/21 05:50:52;;;;;;;0.80;0.80;;;;;;;1.44;86.61;99622.69;5070406;28;20136;-83
2022/10/21 05:53:22;;;;;;;0.80;0.80;;;;;;;1.44;86.62;99628.00;5071966;28;20148;-83
2022/10/21 05:56:06;;;;;;;0.80;0.80;;;;;;;1.47;86.61;99634.81;5071769;28;20052;-83
2022/10/21 05:58:34;;;;;;;0.80;0.80;;;;;;;1.47;86.56;99637.47;5070563;28;20052;-83
2022/10/21 06:01:01;;;;;;;0.82;0.82;;;;;;;1.45;86.62;99626.16;5070996;28;20053;-84
2022/10/21 06:03:31;;;;;;;0.80;0.80;;;;;;;1.47;86.60;99626.84;5069974;28;20538;-84
2022/10/21 06:06:00;;;;;;;0.80;0.80;;;;;;;1.48;86.81;99628.47;5086514;28;20520;-84
2022/10/21 06:08:27;;;;;;;0.90;0.90;;;;;;;1.47;86.68;99632.16;5080822;28;20502;-84
2022/10/21 06:11:12;;;;;;;0.80;0.80;;;;;;;1.49;87.01;99619.47;5088795;28;20506;-82
2022/10/21 06:13:41;;;;;;;0.90;0.90;;;;;;;1.55;86.97;99623.31;5087438;28;20300;-84
2022/10/21 06:16:10;;;;;;;0.80;0.80;;;;;;;1.56;86.88;99630.28;5083576;28;20044;-85
2022/10/21 06:18:37;;;;;;;0.90;0.90;;;;;;;1.59;86.92;99624.63;5084873;28;20064;-85
2022/10/21 06:21:05;;;;;;;0.90;0.90;;;;;;;1.63;87.22;99626.78;5083857;28;20147;-82
2022/10/21 06:23:32;;;;;;;0.80;0.80;;;;;;;1.74;86.84;99628.22;5070386;28;20049;-83
2022/10/21 06:26:04;;;;;;;0.93;0.93;;;;;;;1.72;86.96;99623.09;5080096;28;20063;-82
2022/10/21 06:28:35;;;;;;;0.90;0.90;;;;;;;1.76;86.78;99620.91;5091239;28;20144;-84
2022/10/21 06:31:03;;;;;;;0.70;0.70;;;;;;;1.88;87.09;99624.03;5072129;28;20077;-83
2022/10/21 06:33:30;;;;;;;0.88;0.88;;;;;;;1.99;86.39;99626.28;5089757;28;20525;-83
2022/10/21 06:36:03;;;;;;;0.90;0.90;;;;;;;2.04;86.07;99631.91;5090591;28;20078;-85
2022/10/21 06:38:31;;;;;;;0.80;0.80;;;;;;;2.09;85.76;99636.72;5089935;28;20529;-83
2022/10/21 06:41:03;;;;;;;0.85;0.85;;;;;;;2.09;85.55;99639.38;5087572;28;20044;-83
2022/10/21 06:43:38;;;;;;;0.90;0.90;;;;;;;2.10;85.75;99641.03;5081827;28;20059;-83
2022/10/21 06:46:07;;;;;;;0.80;0.80;;;;;;;2.15;85.45;99631.53;5080656;28;20161;-82
2022/10/21 06:48:34;;;;;;;0.90;0.90;;;;;;;2.22;85.67;99631.66;5089632;28;20429;-82
2022/10/21 06:51:05;;;;;;;0.80;0.80;;;;;;;2.26;85.20;99635.63;5087494;28;20377;-83
2022/10/21 06:53:34;;;;;;;0.90;0.90;;;;;;;2.21;85.07;99648.66;5076412;28;20091;-82
2022/10/21 06:56:15;;;;;;;0.82;0.82;;;;;;;2.15;84.92;99644.84;5082844;28;20491;-85
2022/10/21 06:59:01;;;;;;;0.80;0.80;;;;;;;2.09;85.01;99648.19;5069849;28;20048;-84
2022/10/21 07:01:31;;;;;;;0.80;0.80;;;;;;;2.07;85.25;99636.06;5069881;28;20044;-84
2022/10/21 07:04:19;;;;;;;0.82;0.82;;;;;;;2.15;85.33;99639.53;5070344;28;20128;-83
2022/10/21 07:06:47;;;;;;;0.80;0.80;;;;;;;2.19;85.57;99633.84;5066467;28;20048;-83
2022/10/21 07:09:15;;;;;;;0.85;0.85;;;;;;;2.17;85.36;99636.69;5090114;28;20048;-84
2022/10/21 07:11:48;;;;;;;0.90;0.90;;;;;;;2.14;85.15;99647.69;5052715;28;20052;-83
2022/10/21 07:14:15;;;;;;;0.90;0.90;;;;;;;2.18;85.33;99635.69;5089306;28;20101;-82
2022/10/21 07:16:42;;;;;;;0.80;0.80;;;;;;;2.29;85.27;99632.63;5083615;28;20040;-84
2022/10/21 07:19:10;;;;;;;0.90;0.90;;;;;;;2.38;85.30;99638.72;5091865;28;20576;-83
2022/10/21 07:21:38;;;;;;;0.85;0.85;;;;;;;2.51;85.07;99635.50;5092800;28;20056;-83
2022/10/21 07:24:05;;;;;;;0.90;0.90;;;;;;;2.54;84.83;99629.81;5097232;28;20482;-83
2022/10/21 07:26:33;;;;;;;0.70;0.70;;;;;;;2.59;84.50;99628.25;5096877;28;20048;-83
2022/10/21 07:29:01;;;;;;;0.70;0.70;;;;;;;2.65;84.39;99637.38;5092282;28;20048;-83
2022/10/21 07:31:31;;;;;;;0.90;0.90;;;;;;;2.61;83.65;99628.09;5093671;28;20052;-83
2022/10/21 07:34:02;;;;;;;0.80;0.80;;;;;;;2.61;83.57;99630.75;5092418;28;20584;-81
2022/10/21 07:36:37;;;;;;;0.90;0.90;;;;;;;2.63;83.47;99619.91;5084998;28;20041;-81
2022/10/21 07:39:07;;;;;;;0.90;0.90;;;;;;;2.73;83.51;99615.97;5085059;28;20059;-83
2022/10/21 07:41:40;;;;;;;0.90;0.90;;;;;;;2.82;83.20;99633.56;5091070;28;20090;-83
2022/10/21 07:44:07;;;;;;;0.80;0.80;;;;;;;2.77;83.12;99621.81;5087883;28;20075;-83
2022/10/21 07:46:37;;;;;;;0.90;0.90;;;;;;;2.79;83.14;99628.63;5082746;28;20044;-83
2022/10/21 07:49:04;;;;;;;0.90;0.90;;;;;;;2.77;83.05;99619.13;5092421;28;20060;-82
2022/10/21 07:51:31;;;;;;;0.80;0.80;;;;;;;2.75;82.62;99621.16;5088607;28;20068;-83
2022/10/21 07:53:59;;;;;;;0.82;0.82;;;;;;;2.74;82.96;99625.66;5089959;28;20421;-82
2022/10/21 07:56:35;;;;;;;0.80;0.80;;;;;;;2.75;82.96;99626.47;5073493;28;20106;-83
2022/10/21 07:59:06;;;;;;;0.80;0.80;;;;;;;2.81;83.17;99636.41;5079329;28;20522;-85
2022/10/21 08:01:42;;;;;;;0.80;0.80;;;;;;;2.89;82.90;99635.53;5071887;28;20047;-86
2022/10/21 08:04:16;;;;;;;0.80;0.80;;;;;;;2.93;82.69;99642.16;5071965;28;20049;-84
2022/10/21 08:06:46;;;;;;;0.73;0.73;;;;;;;2.93;82.75;99629.66;5071774;28;20521;-84
2022/10/21 08:09:16;;;;;;;0.80;0.80;;;;;;;2.99;82.59;99639.63;5055638;28;20075;-84
2022/10/21 08:11:43;;;;;;;0.80;0.80;;;;;;;2.88;82.47;99636.53;5076100;28;20110;-85
2022/10/21 08:14:10;;;;;;;0.80;0.80;;;;;;;2.87;82.83;99634.88;5073870;28;20049;-85
2022/10/21 08:16:41;;;;;;;0.90;0.90;;;;;;;2.96;82.47;99637.31;5073019;28;20499;-85
2022/10/21 08:19:18;;;;;;;0.90;0.90;;;;;;;3.00;82.40;99635.09;5072744;28;20090;-83
2022/10/21 08:21:49;;;;;;;0.80;0.80;;;;;;;2.95;82.48;99632.97;5072629;28;20476;-84
2022/10/21 08:24:16;;;;;;;0.93;0.93;;;;;;;3.06;82.30;99637.03;5072664;28;20048;-85
2022/10/21 08:26:43;;;;;;;0.90;0.90;;;;;;;3.03;82.32;99622.22;5072762;28;20143;-84
2022/10/21 08:29:10;;;;;;;0.90;0.90;;;;;;;3.16;81.99;99629.59;5071750;28;20055;-84
2022/10/21 08:31:38;;;;;;;0.80;0.80;;;;;;;3.12;81.94;99631.00;5070804;28;20143;-84
2022/10/21 08:34:05;;;;;;;0.90;0.90;;;;;;;3.17;82.38;99633.13;5071230;28;20040;-84
2022/10/21 08:36:32;;;;;;;0.80;0.80;;;;;;;3.19;82.23;99621.25;5071960;28;20052;-85
2022/10/21 08:38:59;;;;;;;0.88;0.88;;;;;;;3.27;81.84;99633.69;5072163;28;20054;-85
2022/10/21 08:41:29;;;;;;;0.80;0.80;;;;;;;3.22;81.91;99631.56;5070323;28;20391;-84
2022/10/21 08:44:09;;;;;;;0.90;0.90;;;;;;;3.22;81.85;99622.75;5070739;28;20059;-85
2022/10/21 08:46:46;;;;;;;0.80;0.80;;;;;;;3.36;81.95;99613.09;5070828;28;20055;-85
2022/10/21 08:49:23;;;;;;;0.90;0.90;;;;;;;3.51;81.61;99618.44;5070809;28;20422;-85
2022/10/21 08:52:05;;;;;;;0.90;0.90;;;;;;;3.55;80.91;99614.41;5070701;28;20044;-84
2022/10/21 08:54:53;;;;;;;0.70;0.70;;;;;;;3.43;81.20;99609.50;5070326;28;20048;-85
2022/10/21 08:57:23;;;;;;;0.80;0.80;;;;;;;3.60;81.44;99612.81;5070721;28;20470;-84
2022/10/21 08:59:50;;;;;;;0.82;0.82;;;;;;;3.75;81.01;99615.50;5054591;28;20056;-85
2022/10/21 09:02:31;;;;;;;0.90;0.90;;;;;;;3.83;80.72;99615.38;5071601;28;20044;-83
2022/10/21 09:05:40;;;;;;;0.80;0.80;;;;;;;3.86;80.67;99608.84;5072276;28;20071;-86
2022/10/21 09:08:13;;;;;;;0.80;0.80;;;;;;;3.96;80.18;99622.72;5052789;28;20059;-84
2022/10/21 09:11:08;;;;;;;0.80;0.80;;;;;;;4.14;80.13;99617.00;5071840;28;20415;-86
2022/10/21 09:13:55;;;;;;;0.90;0.90;;;;;;;4.22;79.54;99618.72;5072001;28;20056;-84
2022/10/21 09:16:55;;;;;;;0.80;0.80;;;;;;;4.10;79.19;99626.38;5071584;28;20053;-85
2022/10/21 09:19:43;;;;;;;0.60;0.60;;;;;;;4.03;78.94;99622.81;5054685;28;20053;-85
2022/10/21 09:22:33;;;;;;;0.70;0.70;;;;;;;4.05;79.54;99618.94;5070484;28;20060;-85
2022/10/21 09:25:24;;;;;;;0.80;0.80;;;;;;;4.04;79.55;99621.81;5070756;28;20040;-84
2022/10/21 09:27:52;;;;;;;0.80;0.80;;;;;;;3.95;79.41;99625.56;5070350;28;20082;-86
2022/10/21 09:30:23;;;;;;;0.80;0.80;;;;;;;3.83;79.83;99626.06;5070457;28;20108;-85
2022/10/21 09:32:57;;;;;;;0.80;0.80;;;;;;;3.92;80.32;99613.44;5074392;28;20128;-85
2022/10/21 09:35:34;;;;;;;0.73;0.73;;;;;;;4.01;79.70;99622.19;5076168;28;20131;-85
2022/10/21 09:38:16;;;;;;;0.80;0.80;;;;;;;4.02;80.13;99629.16;5071780;28;20423;-84
2022/10/21 09:40:47;;;;;;;0.80;0.80;;;;;;;4.11;80.10;99644.09;5070287;28;20056;-85
2022/10/21 09:43:21;;;;;;;0.70;0.70;;;;;;;4.06;79.81;99641.97;5070405;28;20052;-86
2022/10/21 09:45:50;;;;;;;0.80;0.80;;;;;;;3.99;79.88;99637.56;5069974;28;20052;-84
2022/10/21 09:48:18;;;;;;;0.70;0.70;;;;;;;3.90;80.41;99631.50;5071885;28;20076;-85
2022/10/21 09:50:51;;;;;;;0.90;0.90;;;;;;;3.92;80.35;99629.44;5071247;28;20044;-84
2022/10/21 09:53:24;;;;;;;0.80;0.80;;;;;;;3.92;80.44;99626.78;5071034;28;20075;-85
2022/10/21 09:56:02;;;;;;;0.80;0.80;;;;;;;3.97;80.43;99620.88;5070259;28;20044;-87
2022/10/21 09:58:35;;;;;;;0.80;0.80;;;;;;;3.98;80.78;99628.72;5080250;28;20464;-85
2022/10/21 10:01:05;;;;;;;0.80;0.80;;;;;;;4.04;80.63;99627.97;5088619;28;20163;-84
2022/10/21 10:03:44;;;;;;;0.80;0.80;;;;;;;4.07;80.57;99624.91;5089447;28;20082;-86
2022/10/21 10:06:11;;;;;;;0.80;0.80;;;;;;;4.11;80.35;99617.38;4734674;28;10000050;-85
2022/10/21 10:08:43;;;;;;;0.80;0.80;;;;;;;4.05;80.18;99620.78;5080210;28;20144;-83
2022/10/21 10:11:17;;;;;;;0.75;0.75;;;;;;;3.92;80.42;99618.75;5034648;28;20620;-85
2022/10/21 10:13:52;;;;;;;0.90;0.90;;;;;;;3.92;80.57;99621.44;5085729;28;20044;-86
2022/10/21 10:16:34;;;;;;;0.90;0.90;;;;;;;3.93;80.75;99619.63;5083364;28;20048;-82
2022/10/21 10:19:22;;;;;;;0.88;0.88;;;;;;;3.84;81.12;99626.88;5084215;28;20048;-84
2022/10/21 10:22:10;;;;;;;0.90;0.90;;;;;;;3.93;81.52;99617.78;5087794;28;20050;-82
2022/10/21 10:24:45;;;;;;;0.75;0.75;;;;;;;3.99;81.43;99613.53;5086875;28;20060;-83
2022/10/21 10:27:25;;;;;;;0.90;0.90;;;;;;;4.06;80.88;99609.09;5085671;28;20143;-83
2022/10/21 10:29:58;;;;;;;0.85;0.85;;;;;;;4.06;80.93;99617.09;5087205;28;20418;-83
2022/10/21 10:32:30;;;;;;;0.90;0.90;;;;;;;4.07;80.92;99610.72;5087069;28;20055;-84
2022/10/21 10:35:14;;;;;;;0.90;0.90;;;;;;;3.97;80.99;99605.69;5086587;28;20071;-84
2022/10/21 10:37:47;;;;;;;0.80;0.80;;;;;;;3.91;80.65;99609.94;5080363;28;20048;-83
2022/10/21 10:40:27;;;;;;;0.80;0.80;;;;;;;3.90;80.83;99615.47;5055172;28;20052;-83
2022/10/21 10:43:00;;;;;;;0.80;0.80;;;;;;;3.94;80.69;99611.41;5073557;28;20051;-85
2022/10/21 10:45:29;;;;;;;0.80;0.80;;;;;;;3.97;80.36;99612.88;5084449;28;20044;-84
2022/10/21 10:47:59;;;;;;;0.85;0.85;;;;;;;3.99;80.13;99601.00;5086525;28;20044;-84
2022/10/21 10:50:43;;;;;;;0.90;0.90;;;;;;;4.03;80.02;99593.44;5090797;28;20544;-83
2022/10/21 10:53:48;;;;;;;0.90;0.90;;;;;;;4.16;79.80;99595.44;5094781;28;20054;-83
2022/10/21 10:56:28;;;;;;;0.82;0.82;;;;;;;4.25;78.95;99578.25;5089070;28;20428;-83
2022/10/21 10:59:26;;;;;;;0.90;0.90;;;;;;;4.37;78.34;99581.25;5086841;28;20135;-83
2022/10/21 11:02:08;;;;;;;0.80;0.80;;;;;;;4.33;78.36;99586.19;5065995;28;20063;-82
2022/10/21 11:04:55;;;;;;;0.70;0.70;;;;;;;4.29;77.90;99582.22;5079316;28;20045;-84
2022/10/21 11:07:32;;;;;;;0.80;0.80;;;;;;;4.29;77.78;99580.38;5074307;28;20411;-83
2022/10/21 11:10:19;;;;;;;0.80;0.80;;;;;;;4.36;78.02;99587.63;5075908;28;20056;-82
2022/10/21 11:12:50;;;;;;;0.80;0.80;;;;;;;4.45;78.33;99589.16;5088382;28;20056;-83
2022/10/21 11:15:18;;;;;;;0.80;0.80;;;;;;;4.50;78.25;99589.41;5094576;28;20053;-83
2022/10/21 11:17:59;;;;;;;0.80;0.80;;;;;;;4.49;78.02;99593.13;5092394;28;20052;-83
2022/10/21 11:21:14;;;;;;;0.70;0.70;;;;;;;4.53;77.54;99594.38;5088825;28;20098;-84
2022/10/21 11:23:57;;;;;;;;;;;;;;;4.53;76.99;99589.03;5083146;28;20090;-82
2022/10/21 11:26:36;;;;;;;0.80;0.80;;;;;;;4.45;77.37;99589.16;5091761;28;19928;-82
2022/10/21 11:29:32;;;;;;;0.70;0.70;;;;;;;4.53;77.43;99584.53;5091430;28;20048;-85
2022/10/21 11:32:11;;;;;;;0.80;0.80;;;;;;;4.53;77.23;99589.03;5092518;28;20571;-84
2022/10/21 11:34:49;;;;;;;0.80;0.80;;;;;;;4.55;77.63;99582.47;5087978;28;20056;-84
2022/10/21 11:37:21;;;;;;;0.80;0.80;;;;;;;4.55;77.94;99579.78;5091775;28;20056;-82
2022/10/21 11:39:51;;;;;;;0.80;0.80;;;;;;;4.66;77.82;99578.47;5092172;28;20048;-82
2022/10/21 11:42:32;;;;;;;0.80;0.80;;;;;;;4.65;77.40;99559.94;5093700;28;20067;-81
2022/10/21 11:45:28;;;;;;;0.80;0.80;;;;;;;4.66;76.71;99567.78;5091472;28;20503;-82
2022/10/21 11:48:25;;;;;;;0.77;0.77;;;;;;;4.55;76.88;99555.72;5095042;28;20101;-83
2022/10/21 11:51:15;;;;;;;0.80;0.80;;;;;;;4.51;77.12;99559.81;5092575;28;20095;-82
2022/10/21 11:53:50;;;;;;;0.88;0.88;;;;;;;4.52;77.26;99572.16;5083965;28;20105;-84
2022/10/21 11:56:42;;;;;;;0.80;0.80;;;;;;;4.56;77.43;99567.28;5090671;28;20056;-84
2022/10/21 11:59:50;;;;;;;0.70;0.70;;;;;;;4.59;77.66;99558.03;5092464;28;20105;-83
2022/10/21 12:02:43;;;;;;;0.73;0.73;;;;;;;4.62;77.49;99568.34;5091348;28;20060;-84
2022/10/21 12:05:32;;;;;;;0.70;0.70;;;;;;;4.61;77.40;99570.19;5091599;28;20063;-83
2022/10/21 12:08:10;;;;;;;0.73;0.73;;;;;;;4.61;77.57;99564.00;5092340;28;20059;-82
2022/10/21 12:10:50;;;;;;;0.80;0.80;;;;;;;4.55;77.52;99565.59;5073783;28;20074;-83